Time;durP1;ratioP1;P1;durP2;ratioP2;P2;SDS_P1;SDS_P2;PMS_P1;PMS_P2;Temp;Humidity;BMP_temperature;BMP_pressure;BME280_temperature;BME280_humidity;BME280_pressure;Samples;Min_cycle;Max_cycle;Signal;HPM_P1;HPM_P2
2021/10/21 00:32:36;;;;;;;3.70;1.73;;;;;;;15.10;85.25;98527.22;1087974;54;21210;-81
2021/10/21 00:33:37;;;;;;;3.83;1.92;;;;;;;15.18;85.20;98520.78;1088384;54;20015;-81
2021/10/21 00:34:41;;;;;;;4.40;1.95;;;;;;;15.20;84.86;98508.78;1088682;39;20575;-82
2021/10/21 00:35:46;;;;;;;4.25;1.83;;;;;;;15.23;85.01;98507.50;1088306;54;20027;-80
2021/10/21 00:36:47;;;;;;;4.28;2.00;;;;;;;15.24;84.77;98523.47;1088246;54;20573;-81
2021/10/21 00:37:52;;;;;;;3.50;1.70;;;;;;;15.29;85.02;98498.59;1088204;54;20019;-80
2021/10/21 00:38:53;;;;;;;4.00;1.80;;;;;;;15.25;84.95;98462.38;1088314;47;20026;-80
2021/10/21 00:39:58;;;;;;;3.90;1.80;;;;;;;15.22;84.91;98450.16;1088767;46;20718;-82
2021/10/21 00:40:59;;;;;;;3.53;1.77;;;;;;;15.21;84.66;98464.66;1088342;54;20018;-82
2021/10/21 00:42:07;;;;;;;3.70;1.80;;;;;;;15.25;84.72;98475.81;1088172;54;20025;-82
2021/10/21 00:43:08;;;;;;;4.20;1.63;;;;;;;15.22;84.71;98471.72;1088266;54;20050;-81
2021/10/21 00:45:16;;;;;;;3.08;1.52;;;;;;;15.24;85.01;98455.34;1087507;54;20066;-80
2021/10/21 00:46:18;;;;;;;3.55;1.65;;;;;;;15.20;84.92;98460.31;1087805;54;20046;-80
2021/10/21 00:47:22;;;;;;;3.53;1.60;;;;;;;15.20;84.94;98460.31;1087879;54;20054;-79
2021/10/21 00:48:26;;;;;;;3.33;1.65;;;;;;;15.21;84.78;98450.41;1087803;54;20038;-81
2021/10/21 00:49:31;;;;;;;4.97;1.95;;;;;;;15.23;85.00;98442.91;1087922;54;20030;-83
2021/10/21 00:50:34;;;;;;;4.18;1.88;;;;;;;15.22;84.56;98433.19;1087916;54;20034;-82
2021/10/21 00:51:45;;;;;;;3.08;1.45;;;;;;;15.19;84.69;98422.88;1088081;54;20104;-82
2021/10/21 00:52:47;;;;;;;4.00;1.90;;;;;;;15.19;84.82;98415.59;1088061;54;20038;-80
2021/10/21 00:53:52;;;;;;;3.33;1.38;;;;;;;15.15;84.94;98416.25;1088068;54;20035;-81
2021/10/21 00:54:53;;;;;;;3.75;1.67;;;;;;;15.10;85.11;98412.34;1088020;54;20054;-80
2021/10/21 00:55:58;;;;;;;4.72;1.90;;;;;;;15.15;85.23;98405.47;1087939;54;20053;-82
2021/10/21 00:57:01;;;;;;;4.28;1.63;;;;;;;15.22;85.04;98406.25;1088074;54;20022;-84
2021/10/21 00:58:06;;;;;;;2.95;1.40;;;;;;;15.18;84.90;98396.97;1093020;39;20661;-81
2021/10/21 00:59:08;;;;;;;3.40;1.60;;;;;;;15.19;85.20;98396.75;1087976;54;20030;-81
2021/10/21 01:00:14;;;;;;;3.65;1.42;;;;;;;15.23;84.74;98399.84;1088709;47;20078;-80
2021/10/21 01:01:15;;;;;;;2.80;1.30;;;;;;;15.24;84.75;98390.72;1088028;54;20030;-83
2021/10/21 01:02:20;;;;;;;4.50;2.17;;;;;;;15.13;85.09;98406.50;1088038;47;21064;-83
2021/10/21 01:03:21;;;;;;;3.95;1.63;;;;;;;15.06;85.56;98411.09;1088090;54;20039;-82
2021/10/21 01:04:29;;;;;;;3.83;1.50;;;;;;;15.14;85.43;98404.66;1088145;54;20046;-82
2021/10/21 01:06:43;;;;;;;3.97;1.60;;;;;;;15.19;85.24;98404.03;1088090;54;20027;-83
2021/10/21 01:08:03;;;;;;;3.38;1.50;;;;;;;15.19;84.96;98404.03;1088069;54;20019;-80
2021/10/21 01:10:13;;;;;;;3.72;1.80;;;;;;;15.23;84.62;98400.69;1097944;39;20748;-80
2021/10/21 01:11:15;;;;;;;3.28;1.55;;;;;;;15.18;84.91;98403.19;1088119;54;20042;-80
2021/10/21 01:13:29;;;;;;;3.65;1.55;;;;;;;15.04;85.08;98399.72;1087717;54;20102;-81
2021/10/21 01:14:31;;;;;;;3.20;1.67;;;;;;;15.15;85.26;98392.03;1088104;54;20054;-82
2021/10/21 01:16:42;;;;;;;3.03;1.50;;;;;;;15.16;84.84;98397.19;1087829;54;20030;-82
2021/10/21 01:17:44;;;;;;;4.53;1.83;;;;;;;15.17;84.94;98376.50;1088043;54;20042;-81
2021/10/21 01:18:50;;;;;;;3.30;1.55;;;;;;;15.09;85.05;98366.78;1088182;54;20624;-83
2021/10/21 01:19:57;;;;;;;4.40;1.80;;;;;;;15.09;85.19;98364.94;1087868;54;20050;-80
2021/10/21 01:21:03;;;;;;;3.00;1.42;;;;;;;15.13;85.12;98350.00;1087491;54;20047;-81
2021/10/21 01:22:05;;;;;;;4.00;2.05;;;;;;;15.16;84.73;98345.22;1087520;54;20059;-81
2021/10/21 01:23:09;;;;;;;3.65;1.70;;;;;;;15.13;84.70;98341.13;1087504;54;20054;-80
2021/10/21 01:24:11;;;;;;;3.50;1.63;;;;;;;15.05;85.13;98347.56;1087532;54;20065;-81
2021/10/21 01:25:16;;;;;;;5.32;1.77;;;;;;;15.03;85.21;98362.28;1087615;54;20019;-80
2021/10/21 01:26:18;;;;;;;3.75;1.80;;;;;;;15.02;85.19;98361.44;1087466;54;20042;-81
2021/10/21 01:27:22;;;;;;;4.35;1.80;;;;;;;14.79;86.16;98343.97;1087594;54;20037;-81
2021/10/21 01:28:24;;;;;;;4.00;2.10;;;;;;;14.91;85.94;98337.94;1087562;54;20035;-80
2021/10/21 01:29:29;;;;;;;3.97;1.83;;;;;;;14.95;85.62;98317.59;1087813;54;20041;-81
2021/10/21 01:30:31;;;;;;;4.72;1.92;;;;;;;14.88;86.26;98316.81;1087902;54;20908;-81
2021/10/21 01:31:35;;;;;;;4.18;2.08;;;;;;;14.95;85.53;98306.84;1087745;54;20050;-81
2021/10/21 01:32:37;;;;;;;4.25;1.70;;;;;;;14.82;86.27;98311.28;1087922;54;20050;-80
2021/10/21 01:33:41;;;;;;;4.63;1.90;;;;;;;14.88;86.05;98317.63;1087903;54;20058;-80
2021/10/21 01:34:43;;;;;;;3.35;1.88;;;;;;;14.82;86.69;98329.25;1087926;54;20034;-80
2021/10/21 01:35:50;;;;;;;5.28;1.67;;;;;;;14.89;86.54;98323.84;1088556;39;20636;-81
2021/10/21 01:36:53;;;;;;;4.78;1.90;;;;;;;14.88;86.19;98322.19;1087797;54;20014;-80
2021/10/21 01:37:57;;;;;;;3.65;1.60;;;;;;;14.91;86.07;98302.94;1087894;54;20038;-81
2021/10/21 01:38:59;;;;;;;3.90;1.80;;;;;;;14.94;85.67;98295.28;1087774;54;20034;-80
2021/10/21 01:40:03;;;;;;;3.88;1.95;;;;;;;14.96;85.70;98289.66;1088818;39;20650;-80
2021/10/21 01:41:05;;;;;;;6.10;1.95;;;;;;;15.01;85.69;98299.78;1092482;39;20600;-80
2021/10/21 01:42:10;;;;;;;4.63;1.95;;;;;;;14.98;85.49;98298.34;1087936;54;20034;-80
2021/10/21 01:43:13;;;;;;;4.38;2.00;;;;;;;15.03;85.72;98292.31;1087946;54;20020;-79
2021/10/21 01:44:18;;;;;;;3.92;1.73;;;;;;;15.02;85.56;98291.47;1087933;54;20114;-81
2021/10/21 01:45:21;;;;;;;4.47;2.00;;;;;;;15.01;85.37;98278.25;1088036;54;20062;-80
2021/10/21 01:46:26;;;;;;;3.88;2.17;;;;;;;15.02;85.41;98267.25;1087872;54;20030;-80
2021/10/21 01:47:27;;;;;;;4.35;2.13;;;;;;;15.04;85.52;98243.66;1087851;54;20071;-80
2021/10/21 01:48:31;;;;;;;5.80;2.03;;;;;;;15.00;85.30;98250.53;1087848;54;20041;-80
2021/10/21 01:49:33;;;;;;;4.95;2.95;;;;;;;15.05;85.23;98249.88;1087871;54;20772;-81
2021/10/21 01:50:37;;;;;;;5.80;2.65;;;;;;;15.03;85.52;98238.50;1087925;54;20089;-80
2021/10/21 01:51:42;;;;;;;5.20;2.60;;;;;;;15.06;85.58;98246.97;1087873;54;20037;-80
2021/10/21 01:52:47;;;;;;;7.20;3.45;;;;;;;15.06;85.34;98236.19;1087766;54;20042;-80
2021/10/21 01:53:49;;;;;;;5.95;3.10;;;;;;;15.05;85.41;98223.78;1091961;39;20619;-80
2021/10/21 01:54:55;;;;;;;5.30;3.20;;;;;;;15.09;85.15;98208.84;1088014;54;20037;-80
2021/10/21 01:55:57;;;;;;;4.35;2.95;;;;;;;15.08;85.27;98220.66;1088035;54;20031;-80
2021/10/21 01:57:01;;;;;;;4.80;3.00;;;;;;;15.11;85.29;98204.06;1087955;54;20046;-79
2021/10/21 01:58:03;;;;;;;4.95;3.20;;;;;;;15.07;85.65;98210.94;1087906;54;20030;-79
2021/10/21 01:59:07;;;;;;;6.57;3.60;;;;;;;15.09;85.19;98208.03;1087843;54;20034;-80
2021/10/21 02:00:13;;;;;;;5.15;3.17;;;;;;;15.12;85.40;98194.94;1087854;54;21497;-79
2021/10/21 02:01:17;;;;;;;4.72;2.80;;;;;;;15.19;85.05;98194.09;1087967;54;20030;-80
2021/10/21 02:02:19;;;;;;;5.10;3.13;;;;;;;15.19;85.31;98196.78;1089619;46;20046;-80
2021/10/21 02:03:23;;;;;;;5.75;3.20;;;;;;;15.14;85.26;98181.28;1087707;54;20041;-80
2021/10/21 02:04:26;;;;;;;5.88;3.83;;;;;;;15.15;85.48;98171.34;1087783;54;20058;-81
2021/10/21 02:05:30;;;;;;;6.38;3.40;;;;;;;15.17;85.14;98180.03;1087677;54;20030;-81
2021/10/21 02:06:32;;;;;;;5.60;3.50;;;;;;;15.21;85.08;98160.53;1088598;39;20328;-79
2021/10/21 02:07:41;;;;;;;4.65;3.50;;;;;;;15.20;85.10;98158.06;1087998;54;20042;-81
2021/10/21 02:08:43;;;;;;;6.05;3.65;;;;;;;15.19;85.46;98146.44;1088014;54;20038;-79
2021/10/21 02:09:48;;;;;;;5.60;3.72;;;;;;;15.19;85.56;98135.69;1087895;54;20037;-80
2021/10/21 02:10:50;;;;;;;6.45;4.07;;;;;;;15.19;85.61;98095.31;1087839;54;20034;-80
2021/10/21 02:11:54;;;;;;;5.20;3.80;;;;;;;15.24;85.21;98094.66;1087720;54;20042;-79
2021/10/21 02:12:56;;;;;;;6.68;3.80;;;;;;;15.25;84.99;98093.59;1088732;46;20038;-79
2021/10/21 02:14:00;;;;;;;6.57;4.03;;;;;;;15.24;85.52;98106.25;1087924;54;20034;-80
2021/10/21 02:15:02;;;;;;;6.25;4.28;;;;;;;15.20;85.60;98098.84;1087838;54;20774;-78
2021/10/21 02:16:07;;;;;;;6.80;3.85;;;;;;;15.24;85.65;98097.34;1087535;54;20733;-81
2021/10/21 02:17:09;;;;;;;5.55;4.28;;;;;;;15.23;85.69;98093.00;1087444;54;20049;-80
2021/10/21 02:18:13;;;;;;;5.82;4.00;;;;;;;15.19;85.80;98092.63;1087884;54;20050;-81
2021/10/21 02:19:15;;;;;;;5.43;4.18;;;;;;;15.22;85.61;98102.13;1087895;54;20039;-80
2021/10/21 02:20:19;;;;;;;5.35;3.90;;;;;;;15.21;85.64;98097.81;1087776;54;20040;-81
2021/10/21 02:21:21;;;;;;;7.53;4.28;;;;;;;15.19;85.74;98089.13;1087750;54;20030;-80
2021/10/21 02:22:25;;;;;;;6.28;4.25;;;;;;;15.30;85.43;98093.78;1087851;54;20042;-81
2021/10/21 02:23:29;;;;;;;7.40;4.13;;;;;;;15.27;85.14;98095.03;1087857;54;20030;-81
2021/10/21 02:24:34;;;;;;;5.70;3.97;;;;;;;15.29;85.07;98097.50;1087776;54;20035;-81
2021/10/21 02:25:40;;;;;;;5.60;3.60;;;;;;;15.33;84.86;98096.00;1087908;54;20059;-80
2021/10/21 02:26:41;;;;;;;6.10;4.07;;;;;;;15.38;84.49;98104.25;1087782;54;20038;-80
2021/10/21 02:27:47;;;;;;;5.43;3.85;;;;;;;15.43;84.47;98104.38;1087728;54;21235;-80
2021/10/21 02:28:51;;;;;;;5.20;3.60;;;;;;;15.41;84.38;98103.78;1087896;54;20030;-80
2021/10/21 02:29:52;;;;;;;5.25;3.72;;;;;;;15.46;84.15;98102.31;1087912;54;20027;-81
2021/10/21 02:30:57;;;;;;;6.30;4.10;;;;;;;15.55;83.82;98106.34;1087851;54;20034;-80
2021/10/21 02:31:58;;;;;;;5.70;3.95;;;;;;;15.56;83.64;98108.81;1087804;54;20619;-80
2021/10/21 02:33:02;;;;;;;6.13;4.13;;;;;;;15.60;83.45;98106.47;1089535;46;20066;-80
2021/10/21 02:34:06;;;;;;;5.00;3.38;;;;;;;15.55;83.39;98112.53;1088334;54;20065;-80
2021/10/21 02:35:12;;;;;;;6.82;3.75;;;;;;;15.64;83.32;98112.22;1087811;54;20037;-80
2021/10/21 02:36:14;;;;;;;6.60;4.30;;;;;;;15.65;83.32;98098.56;1087833;54;20038;-80
2021/10/21 02:37:18;;;;;;;5.45;3.50;;;;;;;15.71;82.71;98096.84;1087771;54;20035;-80
2021/10/21 02:38:19;;;;;;;7.15;3.67;;;;;;;15.63;83.08;98103.34;1087513;54;20037;-81
2021/10/21 02:39:26;;;;;;;6.10;3.55;;;;;;;15.67;82.75;98098.31;1087907;54;20070;-81
2021/10/21 02:40:28;;;;;;;7.47;4.18;;;;;;;15.62;83.09;98096.31;1087587;54;20647;-79
2021/10/21 02:41:32;;;;;;;6.43;3.42;;;;;;;15.71;82.83;98094.97;1087813;54;20038;-80
2021/10/21 02:42:34;;;;;;;5.13;3.58;;;;;;;15.66;82.76;98108.28;1087825;54;20049;-80
2021/10/21 02:43:38;;;;;;;6.07;3.85;;;;;;;15.74;82.27;98093.66;1087892;54;20031;-79
2021/10/21 02:44:40;;;;;;;7.63;3.60;;;;;;;15.67;82.29;98109.09;1087847;54;20042;-80
2021/10/21 02:45:45;;;;;;;4.90;3.30;;;;;;;15.75;82.26;98089.94;1087895;54;20041;-79
2021/10/21 02:46:47;;;;;;;4.55;3.10;;;;;;;15.76;82.18;98086.19;1087904;54;20026;-79
2021/10/21 02:47:52;;;;;;;5.35;3.30;;;;;;;15.76;82.06;98096.97;1087675;54;20050;-80
2021/10/21 02:48:53;;;;;;;4.78;3.17;;;;;;;15.77;82.05;98090.53;1088274;54;20022;-81
2021/10/21 02:49:57;;;;;;;4.93;3.20;;;;;;;15.75;82.25;98093.47;1088474;46;20030;-80
2021/10/21 02:51:01;;;;;;;5.85;3.35;;;;;;;15.69;82.31;98109.69;1087943;54;20038;-80
2021/10/21 02:52:03;;;;;;;5.18;3.25;;;;;;;15.73;82.04;98105.50;1087920;54;20029;-80
2021/10/21 02:53:08;;;;;;;5.72;3.20;;;;;;;15.84;82.18;98103.97;1088808;46;20074;-80
2021/10/21 02:54:09;;;;;;;5.07;3.35;;;;;;;15.79;81.84;98111.84;1087957;54;20042;-80
2021/10/21 02:55:16;;;;;;;6.80;3.30;;;;;;;15.77;82.27;98130.13;1090283;46;20109;-80
2021/10/21 02:56:17;;;;;;;7.55;3.90;;;;;;;15.87;81.92;98138.53;1087971;54;20030;-80
2021/10/21 02:57:21;;;;;;;6.28;3.30;;;;;;;15.86;82.06;98128.81;1087914;54;20066;-81
2021/10/21 02:58:23;;;;;;;4.50;3.03;;;;;;;15.89;81.76;98133.72;1091544;46;20058;-81
2021/10/21 02:59:28;;;;;;;7.22;3.30;;;;;;;15.88;81.80;98130.22;1090052;46;20038;-80
2021/10/21 03:00:32;;;;;;;5.03;3.03;;;;;;;15.92;81.87;98127.91;1088073;46;20035;-81
2021/10/21 03:01:34;;;;;;;5.00;3.08;;;;;;;15.83;82.07;98137.31;1087837;54;20058;-81
2021/10/21 03:02:39;;;;;;;5.32;3.00;;;;;;;15.80;82.76;98135.88;1087996;54;20042;-80
2021/10/21 03:03:41;;;;;;;5.00;2.95;;;;;;;15.76;82.85;98132.00;1090105;46;20030;-81
2021/10/21 03:04:45;;;;;;;3.95;2.60;;;;;;;15.84;82.39;98131.72;1087782;54;20042;-80
2021/10/21 03:05:46;;;;;;;5.40;3.00;;;;;;;15.78;82.75;98135.28;1087865;54;20034;-80
2021/10/21 03:06:50;;;;;;;4.57;2.33;;;;;;;15.93;82.40;98134.94;1087828;54;20026;-80
2021/10/21 03:07:54;;;;;;;5.30;2.70;;;;;;;15.94;82.04;98141.97;1087909;54;20034;-80
2021/10/21 03:08:56;;;;;;;4.50;2.40;;;;;;;15.79;82.57;98133.41;1087894;54;20026;-80
2021/10/21 03:10:00;;;;;;;5.05;2.60;;;;;;;15.78;82.89;98131.75;1087834;54;20034;-80
2021/10/21 03:11:04;;;;;;;6.53;2.60;;;;;;;15.87;82.48;98119.69;1087778;54;20427;-80
2021/10/21 03:12:09;;;;;;;4.43;2.30;;;;;;;15.78;82.77;98126.38;1087824;54;20054;-77
2021/10/21 03:13:11;;;;;;;4.20;2.55;;;;;;;15.78;82.83;98129.06;1089766;46;20038;-81
2021/10/21 03:14:15;;;;;;;3.60;2.20;;;;;;;15.78;82.69;98121.81;1088068;54;20046;-80
2021/10/21 03:15:17;;;;;;;4.00;2.42;;;;;;;15.79;82.59;98136.09;1087443;54;20041;-77
2021/10/21 03:16:21;;;;;;;3.42;1.92;;;;;;;15.73;82.78;98140.50;1087798;54;20033;-80
2021/10/21 03:17:22;;;;;;;4.28;2.03;;;;;;;15.80;82.61;98137.75;1087481;54;20046;-80
2021/10/21 03:18:26;;;;;;;4.88;1.88;;;;;;;15.82;81.99;98143.75;1087626;54;20038;-80
2021/10/21 03:19:28;;;;;;;2.97;1.35;;;;;;;15.84;80.21;98152.44;1087925;54;20034;-81
2021/10/21 03:20:34;;;;;;;3.47;1.60;;;;;;;15.93;79.85;98148.41;1087825;54;20077;-79
2021/10/21 03:21:37;;;;;;;4.65;1.83;;;;;;;15.95;78.33;98154.41;1087885;54;20050;-81
2021/10/21 03:22:42;;;;;;;3.53;1.33;;;;;;;16.02;77.09;98152.44;1087901;54;20034;-81
2021/10/21 03:23:43;;;;;;;2.47;0.95;;;;;;;16.13;76.43;98174.28;1087818;54;20042;-80
2021/10/21 03:24:48;;;;;;;2.63;1.00;;;;;;;16.22;75.44;98159.44;1087653;54;20038;-81
2021/10/21 03:25:49;;;;;;;2.25;1.00;;;;;;;16.25;75.44;98183.22;1087601;54;20035;-80
2021/10/21 03:26:56;;;;;;;2.60;1.30;;;;;;;16.38;75.00;98182.25;1088035;39;20583;-80
2021/10/21 03:27:58;;;;;;;5.82;1.33;;;;;;;16.35;74.35;98159.25;1087371;54;20034;-81
2021/10/21 03:29:02;;;;;;;2.60;0.95;;;;;;;16.41;74.63;98178.28;1087738;54;20031;-80
2021/10/21 03:30:05;;;;;;;2.63;0.98;;;;;;;16.40;74.50;98173.94;1087610;54;20045;-81
2021/10/21 03:31:10;;;;;;;2.40;0.90;;;;;;;16.30;75.25;98182.56;1087513;54;20031;-81
2021/10/21 03:32:11;;;;;;;2.47;1.10;;;;;;;16.29;75.41;98189.03;1088596;39;20627;-82
2021/10/21 03:33:15;;;;;;;3.08;1.00;;;;;;;16.28;75.67;98193.56;1087713;54;20041;-80
2021/10/21 03:34:17;;;;;;;3.58;1.15;;;;;;;16.39;75.50;98181.19;1087663;54;20034;-81
2021/10/21 03:35:21;;;;;;;3.17;1.30;;;;;;;16.32;75.35;98191.25;1087624;54;20053;-81
2021/10/21 03:36:26;;;;;;;5.28;1.30;;;;;;;16.34;75.33;98183.75;1087702;54;20030;-80
2021/10/21 03:37:28;;;;;;;2.75;1.08;;;;;;;16.39;74.45;98178.50;1087462;54;20035;-81
2021/10/21 03:38:32;;;;;;;3.13;1.10;;;;;;;16.38;72.86;98187.66;1091087;31;20623;-80
2021/10/21 03:39:35;;;;;;;2.83;0.80;;;;;;;16.46;71.46;98184.63;1087814;54;20042;-81
2021/10/21 03:40:39;;;;;;;5.18;0.90;;;;;;;16.46;71.04;98167.63;1087651;54;20030;-81
2021/10/21 03:41:41;;;;;;;3.80;0.93;;;;;;;16.49;69.29;98186.06;1087641;54;20037;-81
2021/10/21 03:42:48;;;;;;;2.58;0.80;;;;;;;16.57;68.82;98193.81;1087700;54;20069;-81
2021/10/21 03:43:49;;;;;;;3.08;0.60;;;;;;;16.58;68.60;98191.97;1087765;54;20030;-81
2021/10/21 03:44:54;;;;;;;2.40;0.75;;;;;;;16.57;68.44;98187.63;1087691;54;20038;-82
2021/10/21 03:45:56;;;;;;;2.83;0.80;;;;;;;16.65;68.13;98209.69;1087743;54;20054;-81
2021/10/21 03:47:00;;;;;;;5.28;0.80;;;;;;;16.55;68.76;98212.09;1087847;54;20090;-81
2021/10/21 03:48:03;;;;;;;4.65;1.10;;;;;;;16.57;67.88;98201.09;1087657;54;20058;-81
2021/10/21 03:49:07;;;;;;;3.50;1.00;;;;;;;16.60;67.96;98204.16;1087719;54;20101;-81
2021/10/21 03:50:09;;;;;;;5.10;0.98;;;;;;;16.55;67.93;98211.28;1087807;54;20658;-80
2021/10/21 03:51:14;;;;;;;2.58;0.70;;;;;;;16.57;68.31;98210.00;1087663;54;20035;-80
2021/10/21 03:52:16;;;;;;;2.65;0.90;;;;;;;16.59;67.96;98207.06;1087335;54;20035;-80
2021/10/21 03:53:20;;;;;;;3.80;0.82;;;;;;;16.45;68.53;98206.41;1087288;54;20038;-81
2021/10/21 03:54:22;;;;;;;5.95;0.95;;;;;;;16.52;68.03;98223.38;1087204;54;20038;-81
2021/10/21 03:55:27;;;;;;;2.47;0.90;;;;;;;16.53;67.98;98233.09;1087718;54;20037;-81
2021/10/21 03:56:28;;;;;;;2.00;0.70;;;;;;;16.49;67.99;98223.81;1087627;54;20038;-81
2021/10/21 03:57:32;;;;;;;2.03;0.95;;;;;;;16.66;67.92;98230.22;1087589;54;20042;-81
2021/10/21 03:58:37;;;;;;;2.75;0.90;;;;;;;16.44;68.38;98220.94;1087646;54;20038;-81
2021/10/21 03:59:43;;;;;;;2.47;0.80;;;;;;;16.37;68.60;98243.44;1087718;54;20038;-81
2021/10/21 04:00:45;;;;;;;4.32;1.00;;;;;;;16.51;68.67;98227.91;1088248;39;20453;-81
2021/10/21 04:01:49;;;;;;;3.10;0.90;;;;;;;16.42;69.27;98234.66;1087649;54;20042;-81
2021/10/21 04:02:50;;;;;;;3.15;0.93;;;;;;;16.42;69.12;98240.06;1087666;54;20042;-81
2021/10/21 04:03:55;;;;;;;4.43;1.10;;;;;;;16.43;69.19;98238.22;1089824;39;20614;-80
2021/10/21 04:04:56;;;;;;;3.05;0.90;;;;;;;16.44;69.36;98242.53;1087344;54;20046;-81
2021/10/21 04:06:00;;;;;;;3.10;0.90;;;;;;;16.37;69.41;98238.06;1087890;39;20777;-80
2021/10/21 04:07:02;;;;;;;2.80;0.80;;;;;;;16.35;69.92;98232.06;1087680;54;20030;-81
2021/10/21 04:08:07;;;;;;;3.50;1.25;;;;;;;16.41;69.41;98243.00;1087565;54;20446;-81
2021/10/21 04:09:08;;;;;;;3.92;1.10;;;;;;;16.25;69.24;98239.84;1087699;54;20034;-81
2021/10/21 04:10:12;;;;;;;3.08;0.90;;;;;;;16.33;67.95;98253.06;1087625;54;20057;-80
2021/10/21 04:11:14;;;;;;;3.83;0.90;;;;;;;16.38;67.62;98266.66;1087664;46;20046;-81
2021/10/21 04:12:18;;;;;;;2.17;0.60;;;;;;;16.44;66.80;98262.25;1087538;54;20627;-80
2021/10/21 04:13:21;;;;;;;2.92;0.85;;;;;;;16.43;66.16;98262.47;1087689;54;20042;-82
2021/10/21 04:14:28;;;;;;;4.57;1.50;;;;;;;16.30;65.58;98275.06;1087710;54;20201;-81
2021/10/21 04:15:29;;;;;;;4.05;1.05;;;;;;;16.29;66.26;98283.38;1087669;54;20647;-81
2021/10/21 04:16:34;;;;;;;3.47;1.27;;;;;;;16.32;65.92;98277.53;1087810;54;20034;-80
2021/10/21 04:17:36;;;;;;;4.50;1.10;;;;;;;16.23;65.71;98279.72;1087498;54;20035;-81
2021/10/21 04:18:41;;;;;;;2.15;0.70;;;;;;;16.18;64.96;98301.13;1087784;54;20650;-81
2021/10/21 04:19:43;;;;;;;3.03;0.95;;;;;;;16.21;63.85;98304.19;1087834;54;20027;-83
2021/10/21 04:20:49;;;;;;;5.63;0.93;;;;;;;16.35;63.83;98306.75;1088109;54;20038;-82
2021/10/21 04:21:51;;;;;;;3.45;0.80;;;;;;;16.22;64.36;98305.84;1090934;46;20030;-82
2021/10/21 04:22:55;;;;;;;3.30;1.02;;;;;;;16.20;63.85;98312.50;1088138;47;20018;-82
2021/10/21 04:23:56;;;;;;;4.88;0.98;;;;;;;16.20;63.85;98310.63;1087999;54;20035;-82
2021/10/21 04:25:01;;;;;;;2.67;1.00;;;;;;;16.28;63.79;98316.78;1088093;54;20015;-82
2021/10/21 04:26:05;;;;;;;3.83;1.00;;;;;;;16.21;62.56;98324.94;1094592;39;20673;-82
2021/10/21 04:27:07;;;;;;;2.90;0.98;;;;;;;16.12;62.56;98332.47;1088037;54;20651;-82
2021/10/21 04:28:11;;;;;;;2.88;0.85;;;;;;;16.18;61.09;98317.28;1088155;54;20053;-83
2021/10/21 04:29:13;;;;;;;3.47;0.80;;;;;;;16.18;60.93;98330.75;1088183;54;20038;-81
2021/10/21 04:30:20;;;;;;;3.42;0.90;;;;;;;16.09;58.83;98306.00;1088268;39;20688;-82
2021/10/21 04:31:21;;;;;;;4.18;1.10;;;;;;;16.09;57.87;98342.88;1088069;54;20038;-80
2021/10/21 04:32:25;;;;;;;4.88;1.00;;;;;;;16.05;57.50;98340.66;1088159;54;20127;-82
2021/10/21 04:33:27;;;;;;;9.80;1.35;;;;;;;15.95;55.89;98339.50;1088101;54;20450;-82
2021/10/21 04:34:31;;;;;;;3.63;0.98;;;;;;;15.98;55.73;98374.09;1088209;54;20026;-82
2021/10/21 04:35:33;;;;;;;4.53;1.42;;;;;;;15.94;55.34;98372.88;1088128;54;20030;-81
2021/10/21 04:36:39;;;;;;;5.18;1.15;;;;;;;15.75;55.94;98378.16;1088100;54;20058;-81
2021/10/21 04:37:41;;;;;;;8.88;1.13;;;;;;;15.70;56.55;98378.81;1088133;54;20030;-80
2021/10/21 04:38:45;;;;;;;4.15;1.38;;;;;;;15.69;56.01;98387.94;1088098;54;20022;-81
2021/10/21 04:39:46;;;;;;;4.75;0.80;;;;;;;15.65;55.67;98392.13;1088103;54;20018;-81
2021/10/21 04:40:51;;;;;;;5.45;1.48;;;;;;;15.66;56.29;98392.94;1088041;54;20030;-84
2021/10/21 04:41:52;;;;;;;3.30;0.90;;;;;;;15.63;56.56;98396.09;1088229;54;20078;-82
2021/10/21 04:42:57;;;;;;;3.47;0.88;;;;;;;15.48;55.78;98405.28;1088205;54;20056;-81
2021/10/21 04:43:58;;;;;;;3.28;0.95;;;;;;;15.44;55.61;98396.81;1088162;54;20026;-82
2021/10/21 04:45:06;;;;;;;8.02;1.35;;;;;;;15.44;56.17;98412.97;1091376;39;20654;-82
2021/10/21 04:46:11;;;;;;;3.20;0.82;;;;;;;15.43;56.07;98408.63;1088044;54;20034;-82
2021/10/21 04:47:15;;;;;;;6.03;1.17;;;;;;;15.44;56.48;98421.06;1087976;54;20055;-81
2021/10/21 04:48:22;;;;;;;6.05;0.95;;;;;;;15.37;56.23;98406.81;1087931;54;20078;-82
2021/10/21 04:49:23;;;;;;;5.38;0.90;;;;;;;15.49;56.08;98420.41;1089565;39;20244;-82
2021/10/21 04:50:38;;;;;;;3.95;0.80;;;;;;;15.44;56.01;98412.16;1087988;54;20030;-81
2021/10/21 04:51:40;;;;;;;4.57;0.90;;;;;;;15.24;56.19;98423.03;1087920;54;20057;-81
2021/10/21 04:52:52;;;;;;;2.35;0.80;;;;;;;15.29;56.54;98420.53;1088010;54;20050;-82
2021/10/21 04:53:57;;;;;;;3.95;0.90;;;;;;;15.36;56.54;98436.63;1091008;39;20701;-82
2021/10/21 04:55:06;;;;;;;3.75;1.10;;;;;;;15.15;55.78;98418.94;1088034;54;20060;-82
2021/10/21 04:56:10;;;;;;;5.45;1.40;;;;;;;15.11;56.29;98443.56;1088094;54;20053;-81
2021/10/21 04:57:17;;;;;;;6.93;1.13;;;;;;;15.06;55.80;98424.56;1088031;54;20090;-80
2021/10/21 04:58:18;;;;;;;6.45;1.15;;;;;;;15.04;55.81;98439.28;1090856;39;20652;-82
2021/10/21 04:59:22;;;;;;;5.95;1.75;;;;;;;14.99;55.43;98448.00;1088174;54;20026;-81
2021/10/21 05:00:24;;;;;;;7.60;1.33;;;;;;;15.01;54.60;98419.00;1087930;54;20035;-79
2021/10/21 05:01:32;;;;;;;6.40;1.20;;;;;;;15.02;54.50;98438.66;1089766;39;20636;-82
2021/10/21 05:02:34;;;;;;;7.05;1.70;;;;;;;15.01;54.58;98451.31;1088063;54;20034;-81
2021/10/21 05:03:38;;;;;;;8.63;1.73;;;;;;;14.88;54.73;98451.34;1088008;54;20043;-83
2021/10/21 05:04:40;;;;;;;6.43;1.55;;;;;;;14.91;55.08;98443.66;1087926;54;20059;-81
2021/10/21 05:05:46;;;;;;;4.47;0.98;;;;;;;15.04;55.55;98450.03;1087958;54;20034;-81
2021/10/21 05:06:47;;;;;;;6.25;1.40;;;;;;;14.97;55.41;98447.38;1087928;54;20037;-81
2021/10/21 05:07:52;;;;;;;9.20;1.63;;;;;;;14.82;55.40;98453.00;1088003;54;20042;-81
2021/10/21 05:09:01;;;;;;;5.45;1.05;;;;;;;14.85;55.38;98444.50;1087897;54;20045;-82
2021/10/21 05:10:06;;;;;;;4.65;1.33;;;;;;;14.78;56.06;98455.28;1087823;54;20053;-81
2021/10/21 05:11:09;;;;;;;7.57;1.85;;;;;;;14.72;55.72;98447.22;1087954;54;20612;-81
2021/10/21 05:12:13;;;;;;;4.82;1.10;;;;;;;14.69;56.35;98453.88;1087774;54;20681;-83
2021/10/21 05:13:14;;;;;;;9.15;1.38;;;;;;;14.72;54.76;98445.38;1088016;54;20034;-82
2021/10/21 05:14:19;;;;;;;6.20;1.08;;;;;;;14.84;54.86;98450.09;1087987;54;20022;-82
2021/10/21 05:15:20;;;;;;;7.65;1.30;;;;;;;14.82;54.72;98451.16;1087944;54;20038;-82
2021/10/21 05:16:24;;;;;;;7.97;1.63;;;;;;;14.78;54.87;98436.47;1088049;54;20090;-83
2021/10/21 05:17:31;;;;;;;5.03;1.60;;;;;;;14.71;54.52;98453.66;1087965;54;20038;-81
2021/10/21 05:18:35;;;;;;;7.80;1.60;;;;;;;14.74;54.31;98445.16;1088907;47;20872;-81
2021/10/21 05:19:37;;;;;;;6.32;1.17;;;;;;;14.84;54.39;98450.09;1087990;54;20764;-81
2021/10/21 05:20:42;;;;;;;7.20;1.40;;;;;;;14.85;54.55;98447.22;1087926;54;20329;-81
2021/10/21 05:21:44;;;;;;;8.05;1.20;;;;;;;14.81;54.48;98444.13;1087866;54;20043;-79
2021/10/21 05:22:48;;;;;;;7.35;1.50;;;;;;;14.80;53.84;98434.41;1087891;54;20034;-81
2021/10/21 05:23:49;;;;;;;8.52;1.73;;;;;;;14.84;53.61;98450.94;1087991;54;20086;-81
2021/10/21 05:24:55;;;;;;;6.53;0.95;;;;;;;14.88;52.83;98436.00;1088055;54;20053;-80
2021/10/21 05:25:58;;;;;;;9.98;1.67;;;;;;;14.85;52.87;98441.81;1087932;54;20034;-84
2021/10/21 05:27:02;;;;;;;5.55;1.38;;;;;;;14.80;52.89;98431.69;1087957;54;20737;-83
2021/10/21 05:28:11;;;;;;;7.13;1.60;;;;;;;14.82;53.06;98461.91;1087978;54;20030;-82
2021/10/21 05:29:15;;;;;;;11.63;1.70;;;;;;;14.79;52.88;98451.56;1087975;54;20034;-83
2021/10/21 05:30:18;;;;;;;6.93;1.25;;;;;;;14.87;52.55;98449.69;1087956;54;20042;-81
2021/10/21 05:31:22;;;;;;;8.10;1.80;;;;;;;14.86;52.91;98445.34;1087878;54;20015;-81
2021/10/21 05:32:24;;;;;;;10.63;2.17;;;;;;;14.82;53.39;98451.16;1087801;54;20039;-81
2021/10/21 05:33:38;;;;;;;9.00;1.67;;;;;;;14.74;53.15;98445.16;1088483;39;20677;-81
2021/10/21 05:34:40;;;;;;;5.78;1.40;;;;;;;14.79;53.35;98438.13;1087945;54;20027;-81
2021/10/21 05:35:57;;;;;;;11.45;2.08;;;;;;;14.86;53.10;98437.25;1087866;54;20107;-82
2021/10/21 05:36:58;;;;;;;8.40;2.00;;;;;;;14.82;53.10;98453.00;1087839;54;20019;-80
2021/10/21 05:38:02;;;;;;;12.45;2.05;;;;;;;14.82;53.11;98451.16;1087933;54;20035;-82